Time;durP1;ratioP1;P1;durP2;ratioP2;P2;SDS_P1;SDS_P2;PMS_P1;PMS_P2;Temp;Humidity;BMP_temperature;BMP_pressure;BME280_temperature;BME280_humidity;BME280_pressure;Samples;Min_cycle;Max_cycle;Signal;HPM_P1;HPM_P2
2023/10/01 00:00:26;;;;;;;;;;;15.40;99.90;;;;;;4979806;28;20024;-32
2023/10/01 00:02:53;;;;;;;;;;;15.40;99.90;;;;;;4990067;28;20411;-33
2023/10/01 00:05:22;;;;;;;;;;;15.40;99.90;;;;;;4979835;28;19930;-32
2023/10/01 00:07:51;;;;;;;;;;;15.40;99.90;;;;;;5008133;28;19980;-32
2023/10/01 00:10:20;;;;;;;;;;;15.40;99.90;;;;;;4981564;28;19926;-32
2023/10/01 00:12:47;;;;;;;;;;;15.30;99.90;;;;;;4981251;28;19931;-32
2023/10/01 00:15:14;;;;;;;;;;;15.30;99.90;;;;;;4968409;28;19933;-33
2023/10/01 00:17:41;;;;;;;;;;;15.30;99.90;;;;;;4997161;28;19926;-35
2023/10/01 00:20:16;;;;;;;;;;;15.20;99.90;;;;;;4996125;28;20032;-33
2023/10/01 00:22:43;;;;;;;;;;;15.20;99.90;;;;;;5013546;28;19925;-32
2023/10/01 00:25:10;;;;;;;;;;;15.20;99.90;;;;;;5005766;28;19930;-33
2023/10/01 00:27:38;;;;;;;;;;;15.20;99.90;;;;;;4997043;28;19926;-32
2023/10/01 00:30:08;;;;;;;;;;;15.20;99.90;;;;;;5009625;28;19973;-33
2023/10/01 00:32:35;;;;;;;;;;;15.20;99.90;;;;;;4995194;28;20384;-33
2023/10/01 00:35:05;;;;;;;;;;;15.20;99.90;;;;;;4981349;28;20337;-32
2023/10/01 00:37:33;;;;;;;;;;;15.20;99.90;;;;;;4974220;28;19925;-35
2023/10/01 00:40:00;;;;;;;;;;;15.20;99.90;;;;;;4996008;28;19932;-33
2023/10/01 00:42:28;;;;;;;;;;;15.20;99.90;;;;;;5014885;28;19926;-33
2023/10/01 00:44:57;;;;;;;;;;;15.20;99.90;;;;;;5002218;28;19932;-32
2023/10/01 00:47:24;;;;;;;;;;;15.20;99.90;;;;;;4994149;28;20415;-33
2023/10/01 00:49:51;;;;;;;;;;;15.20;99.90;;;;;;5003589;28;20337;-33
2023/10/01 00:52:23;;;;;;;;;;;15.10;99.90;;;;;;4995872;28;20333;-32
2023/10/01 00:54:50;;;;;;;;;;;15.10;99.90;;;;;;4984898;28;19930;-32
2023/10/01 00:57:17;;;;;;;;;;;15.10;99.90;;;;;;4997134;28;20398;-32
2023/10/01 00:59:44;;;;;;;;;;;15.10;99.90;;;;;;5012830;28;19925;-32
2023/10/01 01:02:15;;;;;;;;;;;15.10;99.90;;;;;;4993279;28;19929;-32
2023/10/01 01:04:45;;;;;;;;;;;15.20;99.90;;;;;;4986377;28;19936;-32
2023/10/01 01:07:16;;;;;;;;;;;15.10;99.90;;;;;;4995774;28;19932;-33
2023/10/01 01:09:46;;;;;;;;;;;15.10;99.90;;;;;;4997289;28;19925;-32
2023/10/01 01:12:12;;;;;;;;;;;15.10;99.90;;;;;;4980243;28;20000;-32
2023/10/01 01:14:39;;;;;;;;;;;15.10;99.90;;;;;;4993862;28;19981;-32
2023/10/01 01:17:06;;;;;;;;;;;15.10;99.90;;;;;;4982442;28;19925;-33
2023/10/01 01:19:34;;;;;;;;;;;15.10;99.90;;;;;;4985799;28;20390;-32
2023/10/01 01:22:01;;;;;;;;;;;15.10;99.90;;;;;;4994003;28;20017;-32
2023/10/01 01:24:29;;;;;;;;;;;15.10;99.90;;;;;;4976002;28;19930;-32
2023/10/01 01:27:00;;;;;;;;;;;15.10;99.90;;;;;;4975818;28;19938;-31
2023/10/01 01:29:30;;;;;;;;;;;15.10;99.90;;;;;;4993127;28;19930;-32
2023/10/01 01:32:07;;;;;;;;;;;15.10;99.90;;;;;;4976230;28;20438;-35
2023/10/01 01:34:34;;;;;;;;;;;15.10;99.90;;;;;;4976587;28;20378;-32
2023/10/01 01:37:04;;;;;;;;;;;15.10;99.90;;;;;;4983999;28;19925;-32
2023/10/01 01:39:35;;;;;;;;;;;15.10;99.90;;;;;;4997527;28;19933;-32
2023/10/01 01:42:02;;;;;;;;;;;15.10;99.90;;;;;;4995364;28;19926;-32
2023/10/01 01:44:31;;;;;;;;;;;15.10;99.90;;;;;;4975858;28;19926;-33
2023/10/01 01:47:01;;;;;;;;;;;15.10;99.90;;;;;;4976400;28;20437;-32
2023/10/01 01:49:28;;;;;;;;;;;15.10;99.90;;;;;;4985085;28;19926;-32
2023/10/01 01:52:03;;;;;;;;;;;15.10;99.90;;;;;;4976108;28;20008;-32
2023/10/01 01:54:31;;;;;;;;;;;15.10;99.90;;;;;;4976020;28;19925;-32
2023/10/01 01:57:02;;;;;;;;;;;15.10;99.90;;;;;;4976772;28;19933;-33
2023/10/01 01:59:29;;;;;;;;;;;15.10;99.90;;;;;;4991998;28;19977;-33
2023/10/01 02:01:56;;;;;;;;;;;15.10;99.90;;;;;;4988314;28;19982;-32
2023/10/01 02:04:23;;;;;;;;;;;15.10;99.90;;;;;;4992810;28;19926;-32
2023/10/01 02:06:51;;;;;;;;;;;15.10;99.90;;;;;;4992311;28;19929;-32
2023/10/01 02:09:19;;;;;;;;;;;15.00;99.90;;;;;;4975693;28;20020;-32
2023/10/01 02:11:47;;;;;;;;;;;15.10;99.90;;;;;;4975501;28;19933;-32
2023/10/01 02:14:30;;;;;;;;;;;15.10;99.90;;;;;;4993149;28;19964;-32
2023/10/01 02:17:02;;;;;;;;;;;15.10;99.90;;;;;;4975810;28;19926;-32
2023/10/01 02:19:29;;;;;;;;;;;15.10;99.90;;;;;;4986528;28;19925;-32
2023/10/01 02:22:02;;;;;;;;;;;15.10;99.90;;;;;;5009982;28;19932;-33
2023/10/01 02:27:18;;;;;;;;;;;15.10;99.90;;;;;;4982575;28;19965;-32
2023/10/01 02:30:12;;;;;;;;;;;15.10;99.90;;;;;;4974842;28;19929;-32
2023/10/01 02:32:33;;;;;;;;;;;15.10;99.90;;;;;;4992559;28;19997;-32
2023/10/01 02:35:03;;;;;;;;;;;15.10;99.90;;;;;;4999457;28;19929;-34
2023/10/01 02:37:35;;;;;;;;;;;15.10;99.90;;;;;;4996324;28;20465;-32
2023/10/01 02:40:01;;;;;;;;;;;15.10;99.90;;;;;;4985350;28;19981;-32
2023/10/01 02:42:28;;;;;;;;;;;15.10;99.90;;;;;;4985393;28;19933;-32
2023/10/01 02:44:55;;;;;;;;;;;15.10;99.90;;;;;;4993166;28;19989;-33
2023/10/01 02:47:24;;;;;;;;;;;15.10;99.90;;;;;;4991551;28;19932;-33
2023/10/01 02:49:50;;;;;;;;;;;15.10;99.90;;;;;;5002196;28;19929;-33
2023/10/01 02:52:17;;;;;;;;;;;15.10;99.90;;;;;;4990618;28;19988;-33
2023/10/01 02:54:43;;;;;;;;;;;15.10;99.90;;;;;;4999559;28;19984;-31
2023/10/01 02:57:13;;;;;;;;;;;15.10;99.90;;;;;;4988182;28;19926;-32
2023/10/01 03:00:09;;;;;;;;;;;15.10;99.90;;;;;;4990867;28;19926;-32
2023/10/01 03:02:30;;;;;;;;;;;15.10;99.90;;;;;;4973399;28;19977;-32
2023/10/01 03:04:56;;;;;;;;;;;15.10;99.90;;;;;;4992442;28;19949;-32
2023/10/01 03:07:25;;;;;;;;;;;15.10;99.90;;;;;;4991881;28;19925;-31
2023/10/01 03:09:53;;;;;;;;;;;15.10;99.90;;;;;;4997565;28;19929;-32
2023/10/01 03:12:27;;;;;;;;;;;15.10;99.90;;;;;;4992217;28;19926;-32
2023/10/01 03:15:15;;;;;;;;;;;15.10;99.90;;;;;;4997812;28;19926;-32
2023/10/01 03:17:55;;;;;;;;;;;15.10;99.90;;;;;;4984521;28;19933;-32
2023/10/01 03:23:04;;;;;;;;;;;15.10;99.90;;;;;;4991018;28;19986;-32
2023/10/01 03:25:40;;;;;;;;;;;15.10;99.90;;;;;;4975249;28;19930;-32
2023/10/01 03:28:07;;;;;;;;;;;15.10;99.90;;;;;;4976486;28;19956;-33
2023/10/01 03:30:34;;;;;;;;;;;15.10;99.90;;;;;;4992183;28;20020;-32
2023/10/01 03:33:07;;;;;;;;;;;15.10;99.90;;;;;;4975066;28;20524;-32
2023/10/01 03:35:34;;;;;;;;;;;15.10;99.90;;;;;;4974080;28;19930;-32
2023/10/01 03:38:10;;;;;;;;;;;15.10;99.90;;;;;;4973628;28;19930;-32
2023/10/01 03:40:57;;;;;;;;;;;15.10;99.90;;;;;;4992017;28;19926;-31
2023/10/01 03:43:31;;;;;;;;;;;15.10;99.90;;;;;;4973383;28;19961;-32
2023/10/01 03:46:06;;;;;;;;;;;15.10;99.90;;;;;;4991697;28;20024;-32
2023/10/01 03:48:57;;;;;;;;;;;15.10;99.90;;;;;;4974984;28;19926;-33
2023/10/01 03:51:28;;;;;;;;;;;15.10;99.90;;;;;;4990335;28;19925;-32
2023/10/01 03:53:59;;;;;;;;;;;15.10;99.90;;;;;;4969352;28;19926;-32
2023/10/01 03:56:29;;;;;;;;;;;15.10;99.90;;;;;;4973605;28;19978;-32
2023/10/01 03:58:56;;;;;;;;;;;15.10;99.90;;;;;;4991999;28;19926;-31
2023/10/01 04:01:33;;;;;;;;;;;15.10;99.90;;;;;;4973912;28;19933;-33
2023/10/01 04:04:01;;;;;;;;;;;15.20;99.90;;;;;;4964204;28;19933;-32
2023/10/01 04:06:29;;;;;;;;;;;15.20;99.90;;;;;;4974274;28;19977;-32
2023/10/01 04:08:59;;;;;;;;;;;15.10;99.90;;;;;;4990808;28;19940;-33
2023/10/01 04:11:41;;;;;;;;;;;15.10;99.90;;;;;;4973109;28;19926;-31
2023/10/01 04:14:10;;;;;;;;;;;15.20;99.90;;;;;;4963145;28;19934;-32
2023/10/01 04:16:46;;;;;;;;;;;15.20;99.90;;;;;;4968681;28;20289;-34
2023/10/01 04:19:18;;;;;;;;;;;15.10;99.90;;;;;;5001981;28;20301;-31
2023/10/01 04:21:50;;;;;;;;;;;15.20;99.90;;;;;;4992308;28;20382;-32
2023/10/01 04:24:16;;;;;;;;;;;15.10;99.90;;;;;;4991556;28;19926;-32
2023/10/01 04:26:43;;;;;;;;;;;15.20;99.90;;;;;;4995351;28;19925;-32
2023/10/01 04:29:11;;;;;;;;;;;15.20;99.90;;;;;;4997483;28;20008;-33
2023/10/01 04:31:48;;;;;;;;;;;15.10;99.90;;;;;;5013994;28;19925;-32
2023/10/01 04:34:14;;;;;;;;;;;15.20;99.90;;;;;;5014747;28;20293;-32
2023/10/01 04:36:43;;;;;;;;;;;15.20;99.90;;;;;;5014784;28;19925;-32
2023/10/01 04:39:10;;;;;;;;;;;15.20;99.90;;;;;;5014577;28;19996;-32
2023/10/01 04:41:37;;;;;;;;;;;15.20;99.90;;;;;;4997074;28;19925;-32
2023/10/01 04:44:07;;;;;;;;;;;15.10;99.90;;;;;;4982080;28;20389;-33
2023/10/01 04:46:37;;;;;;;;;;;15.20;99.90;;;;;;4996795;28;20336;-32
2023/10/01 04:49:08;;;;;;;;;;;15.20;99.90;;;;;;5014349;28;20274;-32
2023/10/01 04:51:44;;;;;;;;;;;15.20;99.90;;;;;;4996575;28;19925;-33
2023/10/01 04:54:17;;;;;;;;;;;15.10;99.90;;;;;;5013470;28;20457;-32
2023/10/01 04:56:44;;;;;;;;;;;15.20;99.90;;;;;;4995819;28;19937;-33
2023/10/01 04:59:11;;;;;;;;;;;15.20;99.90;;;;;;5012509;28;19976;-32
2023/10/01 05:01:38;;;;;;;;;;;15.20;99.90;;;;;;4993821;28;20053;-32
2023/10/01 05:04:05;;;;;;;;;;;15.10;99.90;;;;;;4996371;28;19925;-32
2023/10/01 05:06:32;;;;;;;;;;;15.20;99.90;;;;;;5013185;28;20301;-32
2023/10/01 05:08:58;;;;;;;;;;;15.20;99.90;;;;;;4996042;28;19929;-32
2023/10/01 05:11:31;;;;;;;;;;;15.10;99.90;;;;;;4994760;28;20397;-32
2023/10/01 05:13:58;;;;;;;;;;;15.10;99.90;;;;;;5014830;28;19932;-32
2023/10/01 05:16:27;;;;;;;;;;;15.10;99.90;;;;;;4995562;28;19980;-33
2023/10/01 05:19:09;;;;;;;;;;;15.20;99.90;;;;;;4989307;28;19932;-32
2023/10/01 05:21:37;;;;;;;;;;;15.20;99.90;;;;;;4995509;28;19926;-33
2023/10/01 05:24:05;;;;;;;;;;;15.10;99.90;;;;;;4997545;28;20346;-33
2023/10/01 05:26:35;;;;;;;;;;;15.20;99.90;;;;;;4985824;28;19932;-32
2023/10/01 05:29:02;;;;;;;;;;;15.10;99.90;;;;;;4988380;28;19980;-32
2023/10/01 05:31:29;;;;;;;;;;;15.10;99.90;;;;;;4996796;28;20449;-32
2023/10/01 05:33:58;;;;;;;;;;;15.20;99.90;;;;;;5000155;28;19932;-32
2023/10/01 05:36:26;;;;;;;;;;;15.10;99.90;;;;;;4994172;28;19934;-34
2023/10/01 05:38:54;;;;;;;;;;;15.10;99.90;;;;;;5007743;28;20350;-33
2023/10/01 05:41:29;;;;;;;;;;;15.10;99.90;;;;;;4997372;28;19980;-33
2023/10/01 05:44:01;;;;;;;;;;;15.20;99.90;;;;;;5008763;28;19930;-32
2023/10/01 05:46:30;;;;;;;;;;;15.10;99.90;;;;;;4990192;28;20334;-32
2023/10/01 05:49:00;;;;;;;;;;;15.10;99.90;;;;;;5009026;28;20016;-33
2023/10/01 05:51:42;;;;;;;;;;;15.10;99.90;;;;;;4996975;28;19933;-34
2023/10/01 05:54:09;;;;;;;;;;;15.10;99.90;;;;;;4981394;28;19930;-33
2023/10/01 05:56:43;;;;;;;;;;;15.20;99.90;;;;;;4993638;28;19933;-32
2023/10/01 05:59:12;;;;;;;;;;;15.20;99.90;;;;;;5012631;28;20055;-32
2023/10/01 06:01:39;;;;;;;;;;;15.20;99.90;;;;;;4976663;28;20016;-32
2023/10/01 06:04:09;;;;;;;;;;;15.20;99.90;;;;;;4983142;28;20278;-32
2023/10/01 06:06:46;;;;;;;;;;;15.10;99.90;;;;;;4995195;28;20349;-32
2023/10/01 06:09:14;;;;;;;;;;;15.10;99.90;;;;;;4985501;28;19937;-32
2023/10/01 06:11:42;;;;;;;;;;;15.20;99.90;;;;;;5005600;28;19937;-32
2023/10/01 06:14:29;;;;;;;;;;;15.10;99.90;;;;;;5008356;28;19932;-32
2023/10/01 06:17:00;;;;;;;;;;;15.10;99.90;;;;;;4986217;28;19925;-32
2023/10/01 06:19:26;;;;;;;;;;;15.10;99.90;;;;;;5013409;28;19932;-32
2023/10/01 06:21:54;;;;;;;;;;;15.20;99.90;;;;;;4993325;28;19925;-32
2023/10/01 06:24:21;;;;;;;;;;;15.20;99.90;;;;;;5010118;28;20246;-32
2023/10/01 06:26:50;;;;;;;;;;;15.20;99.90;;;;;;5012046;28;19932;-32
2023/10/01 06:29:17;;;;;;;;;;;15.20;99.90;;;;;;5011538;28;19926;-32
2023/10/01 06:31:52;;;;;;;;;;;15.20;99.90;;;;;;4993937;28;19929;-32
2023/10/01 06:34:21;;;;;;;;;;;15.20;99.90;;;;;;4993244;28;20398;-32
2023/10/01 06:36:50;;;;;;;;;;;15.20;99.90;;;;;;5008470;28;19957;-32
2023/10/01 06:39:20;;;;;;;;;;;15.20;99.90;;;;;;5011240;28;19988;-31
2023/10/01 06:41:48;;;;;;;;;;;15.20;99.90;;;;;;5009596;28;19977;-33
2023/10/01 06:44:14;;;;;;;;;;;15.20;99.90;;;;;;4988858;28;19992;-32
2023/10/01 06:46:41;;;;;;;;;;;15.20;99.90;;;;;;5006116;28;19933;-33
2023/10/01 06:49:08;;;;;;;;;;;15.20;99.90;;;;;;4992013;28;19929;-32
2023/10/01 06:51:43;;;;;;;;;;;15.30;99.90;;;;;;5010054;28;19925;-32
2023/10/01 06:54:10;;;;;;;;;;;15.30;99.90;;;;;;4987567;28;19934;-32
2023/10/01 06:56:38;;;;;;;;;;;15.30;99.90;;;;;;4994221;28;19932;-34
2023/10/01 07:01:49;;;;;;;;;;;15.30;99.90;;;;;;4991162;28;19925;-32
2023/10/01 07:04:17;;;;;;;;;;;15.30;99.90;;;;;;4986556;28;19925;-33
2023/10/01 07:06:45;;;;;;;;;;;15.30;99.90;;;;;;4991764;28;20426;-32
2023/10/01 07:09:25;;;;;;;;;;;15.30;99.90;;;;;;5009262;28;19945;-32
2023/10/01 07:11:56;;;;;;;;;;;15.40;99.90;;;;;;4992784;28;19934;-32
2023/10/01 07:14:30;;;;;;;;;;;15.40;99.90;;;;;;5010867;28;19988;-32
2023/10/01 07:16:58;;;;;;;;;;;15.40;99.90;;;;;;5002671;28;19934;-31
2023/10/01 07:19:25;;;;;;;;;;;15.50;99.90;;;;;;4984577;28;19926;-32
2023/10/01 07:21:57;;;;;;;;;;;15.50;99.90;;;;;;5006067;28;19971;-32
2023/10/01 07:24:25;;;;;;;;;;;15.50;99.90;;;;;;4994015;28;19930;-32
2023/10/01 07:26:51;;;;;;;;;;;15.50;99.90;;;;;;4987004;28;19979;-31
2023/10/01 07:29:19;;;;;;;;;;;15.60;99.90;;;;;;4993865;28;19925;-32
2023/10/01 07:31:46;;;;;;;;;;;15.60;99.90;;;;;;5012367;28;19948;-33
2023/10/01 07:34:13;;;;;;;;;;;15.60;99.90;;;;;;4980489;28;19977;-33
2023/10/01 07:36:42;;;;;;;;;;;15.70;99.90;;;;;;5001134;28;19926;-34
2023/10/01 07:39:13;;;;;;;;;;;15.60;99.90;;;;;;5016509;28;20388;-33
2023/10/01 07:41:39;;;;;;;;;;;15.70;99.90;;;;;;5007430;28;19933;-33
2023/10/01 07:44:09;;;;;;;;;;;15.70;99.90;;;;;;4993376;28;19988;-35
2023/10/01 07:46:36;;;;;;;;;;;15.70;99.90;;;;;;5010963;28;20024;-33
2023/10/01 07:49:03;;;;;;;;;;;15.70;99.90;;;;;;5010773;28;20473;-31
2023/10/01 07:51:35;;;;;;;;;;;15.80;99.90;;;;;;4991110;28;19984;-33
2023/10/01 07:54:02;;;;;;;;;;;15.80;99.90;;;;;;5015241;28;20015;-35
2023/10/01 07:56:32;;;;;;;;;;;15.90;99.90;;;;;;5009545;28;20459;-32
2023/10/01 08:02:08;;;;;;;;;;;16.00;99.90;;;;;;5129867;27;19929;-33
2023/10/01 08:07:17;;;;;;;;;;;16.10;99.90;;;;;;5111881;28;19928;-32
2023/10/01 08:09:46;;;;;;;;;;;16.20;99.90;;;;;;5105199;28;19924;-30
2023/10/01 08:12:12;;;;;;;;;;;16.20;99.90;;;;;;5130066;27;19924;-33
2023/10/01 08:14:40;;;;;;;;;;;16.30;99.90;;;;;;5110494;28;19924;-32
2023/10/01 08:17:07;;;;;;;;;;;16.30;99.90;;;;;;5108763;28;19924;-31
2023/10/01 08:19:45;;;;;;;;;;;16.40;99.90;;;;;;5120448;28;19932;-32
2023/10/01 08:22:13;;;;;;;;;;;16.40;99.90;;;;;;5111610;28;19925;-31
2023/10/01 08:24:45;;;;;;;;;;;16.50;99.90;;;;;;5138100;27;20303;-33
2023/10/01 08:27:12;;;;;;;;;;;16.50;99.90;;;;;;5093653;28;20387;-32
2023/10/01 08:32:23;;;;;;;;;;;16.60;99.90;;;;;;5114553;28;19967;-31
2023/10/01 08:35:01;;;;;;;;;;;16.60;99.90;;;;;;5107287;28;20365;-32
2023/10/01 08:37:31;;;;;;;;;;;16.60;99.90;;;;;;5100448;28;19924;-31
2023/10/01 08:39:58;;;;;;;;;;;16.60;99.90;;;;;;5105558;28;19971;-31
2023/10/01 08:42:28;;;;;;;;;;;16.70;99.90;;;;;;5111713;28;19974;-30
2023/10/01 08:45:02;;;;;;;;;;;16.70;99.90;;;;;;5104610;28;19928;-31
2023/10/01 08:47:34;;;;;;;;;;;16.80;99.90;;;;;;5127167;27;19928;-31
2023/10/01 08:50:18;;;;;;;;;;;16.80;99.90;;;;;;5158709;27;20398;-30
2023/10/01 08:52:52;;;;;;;;;;;16.90;99.90;;;;;;5150117;27;19932;-30
2023/10/01 08:55:21;;;;;;;;;;;17.00;99.90;;;;;;5119982;28;19924;-30
2023/10/01 08:57:52;;;;;;;;;;;17.20;99.90;;;;;;5122669;28;20367;-31
2023/10/01 09:00:20;;;;;;;;;;;17.30;99.90;;;;;;5117143;28;19924;-31
2023/10/01 09:02:51;;;;;;;;;;;17.40;99.90;;;;;;5112447;28;20349;-30
2023/10/01 09:05:23;;;;;;;;;;;17.50;99.90;;;;;;5108081;28;20007;-30
2023/10/01 09:07:50;;;;;;;;;;;17.60;99.90;;;;;;5098919;28;19924;-30
2023/10/01 09:10:19;;;;;;;;;;;17.70;99.90;;;;;;5105875;28;19970;-30
2023/10/01 09:12:49;;;;;;;;;;;17.80;99.90;;;;;;5098293;28;20366;-33
2023/10/01 09:15:27;;;;;;;;;;;17.90;99.90;;;;;;5103386;28;19973;-30
2023/10/01 09:17:58;;;;;;;;;;;18.00;99.90;;;;;;5103462;28;19931;-30
2023/10/01 09:20:38;;;;;;;;;;;18.00;99.90;;;;;;5112229;28;20372;-32
2023/10/01 09:23:05;;;;;;;;;;;18.20;99.90;;;;;;5101097;28;19932;-31
2023/10/01 09:25:34;;;;;;;;;;;18.30;99.90;;;;;;5113294;28;19923;-31
2023/10/01 09:28:03;;;;;;;;;;;18.50;99.90;;;;;;5112754;28;20026;-31
2023/10/01 09:30:34;;;;;;;;;;;18.60;99.90;;;;;;5101468;28;20310;-32
2023/10/01 09:33:05;;;;;;;;;;;18.80;99.90;;;;;;5086131;28;19928;-31
2023/10/01 09:35:42;;;;;;;;;;;18.90;99.90;;;;;;5085737;28;19924;-32
2023/10/01 09:38:11;;;;;;;;;;;19.00;99.90;;;;;;5119739;27;20367;-31
2023/10/01 09:40:41;;;;;;;;;;;19.10;99.90;;;;;;5118550;27;19924;-33
2023/10/01 09:43:18;;;;;;;;;;;19.10;99.90;;;;;;5097462;28;19924;-31
2023/10/01 09:45:46;;;;;;;;;;;19.10;99.90;;;;;;5130349;27;20379;-32
2023/10/01 09:48:29;;;;;;;;;;;19.00;99.90;;;;;;5098665;28;20283;-33
2023/10/01 09:50:58;;;;;;;;;;;19.00;99.90;;;;;;5099679;28;19932;-32
2023/10/01 09:53:25;;;;;;;;;;;19.10;99.90;;;;;;5124555;27;20618;-31
2023/10/01 09:55:55;;;;;;;;;;;19.10;99.90;;;;;;5091816;28;20020;-33
2023/10/01 09:58:25;;;;;;;;;;;19.20;99.90;;;;;;5091359;28;19930;-31
2023/10/01 10:00:52;;;;;;;;;;;19.30;99.90;;;;;;5088935;28;19924;-31
2023/10/01 10:03:20;;;;;;;;;;;19.40;99.90;;;;;;5098035;28;19924;-31
2023/10/01 10:05:47;;;;;;;;;;;19.50;99.90;;;;;;5093661;28;19931;-31
2023/10/01 10:08:20;;;;;;;;;;;19.60;99.90;;;;;;5097107;28;20284;-31
2023/10/01 10:10:49;;;;;;;;;;;19.60;99.90;;;;;;5091502;28;19924;-32
2023/10/01 10:13:38;;;;;;;;;;;19.70;99.90;;;;;;5092223;28;20019;-32
2023/10/01 10:19:08;;;;;;;;;;;19.70;99.90;;;;;;5084294;28;20375;-32
2023/10/01 10:22:05;;;;;;;;;;;19.70;99.90;;;;;;5094375;28;20253;-32
2023/10/01 10:24:32;;;;;;;;;;;19.80;99.90;;;;;;5093676;28;19923;-29
2023/10/01 10:27:03;;;;;;;;;;;19.90;99.90;;;;;;5124503;27;19924;-31
2023/10/01 10:29:46;;;;;;;;;;;19.90;99.90;;;;;;5093628;28;19998;-31
2023/10/01 10:32:13;;;;;;;;;;;19.90;99.90;;;;;;5101205;28;19966;-31
2023/10/01 10:34:47;;;;;;;;;;;20.00;99.90;;;;;;5095986;28;19969;-34
2023/10/01 10:37:29;;;;;;;;;;;19.90;99.90;;;;;;5091018;28;20006;-32
2023/10/01 10:42:46;;;;;;;;;;;20.00;99.90;;;;;;5082344;28;19928;-32
2023/10/01 10:45:19;;;;;;;;;;;20.00;99.90;;;;;;5107432;28;20002;-33
2023/10/01 10:47:58;;;;;;;;;;;20.10;99.90;;;;;;5119765;27;19938;-31
2023/10/01 10:50:44;;;;;;;;;;;20.30;99.90;;;;;;5088461;28;20391;-32
2023/10/01 10:53:15;;;;;;;;;;;20.40;99.90;;;;;;5097119;28;19935;-32
2023/10/01 10:56:07;;;;;;;;;;;20.40;99.90;;;;;;5087509;28;19970;-30
2023/10/01 10:58:37;;;;;;;;;;;20.40;99.90;;;;;;5070667;28;19932;-31
2023/10/01 11:01:16;;;;;;;;;;;20.50;99.90;;;;;;5107399;28;19955;-31
2023/10/01 11:03:43;;;;;;;;;;;20.50;99.90;;;;;;5083208;28;19938;-31
2023/10/01 11:06:18;;;;;;;;;;;20.60;99.90;;;;;;5105041;28;19924;-31
2023/10/01 11:08:50;;;;;;;;;;;20.70;99.90;;;;;;5086310;28;19928;-31
2023/10/01 11:11:21;;;;;;;;;;;20.70;99.90;;;;;;5088564;28;20011;-31
2023/10/01 11:13:57;;;;;;;;;;;20.80;99.90;;;;;;5095540;28;19923;-31
2023/10/01 11:16:33;;;;;;;;;;;20.90;99.90;;;;;;5089088;28;19989;-31
2023/10/01 11:19:12;;;;;;;;;;;20.90;99.90;;;;;;5093165;28;19932;-31
2023/10/01 11:22:01;;;;;;;;;;;21.10;99.90;;;;;;5089030;28;20006;-32
2023/10/01 11:24:30;;;;;;;;;;;21.10;99.90;;;;;;5123456;27;19924;-31
2023/10/01 11:27:14;;;;;;;;;;;21.30;99.90;;;;;;5081796;28;19965;-32
2023/10/01 11:29:41;;;;;;;;;;;21.40;99.90;;;;;;5089361;28;19928;-31
2023/10/01 11:32:10;;;;;;;;;;;21.50;99.90;;;;;;5090596;28;19924;-33
2023/10/01 11:34:45;;;;;;;;;;;21.50;99.90;;;;;;5091416;28;20419;-33
2023/10/01 11:37:17;;;;;;;;;;;21.60;99.90;;;;;;5089860;28;19969;-31
2023/10/01 11:39:49;;;;;;;;;;;21.60;99.90;;;;;;5090176;28;19966;-33
2023/10/01 11:42:25;;;;;;;;;;;21.60;99.90;;;;;;5089242;28;19928;-32
2023/10/01 11:44:53;;;;;;;;;;;21.70;99.90;;;;;;5098294;28;19932;-31
2023/10/01 11:47:31;;;;;;;;;;;21.70;99.90;;;;;;5089766;28;19971;-33
2023/10/01 11:50:07;;;;;;;;;;;21.70;99.90;;;;;;5090203;28;20375;-32
2023/10/01 11:52:36;;;;;;;;;;;21.80;99.90;;;;;;5097135;28;20328;-31
2023/10/01 11:55:18;;;;;;;;;;;21.80;99.90;;;;;;5080687;28;20410;-32
2023/10/01 11:57:51;;;;;;;;;;;21.80;99.90;;;;;;5092362;28;19925;-31
2023/10/01 12:00:32;;;;;;;;;;;21.90;99.90;;;;;;5108472;28;19924;-31
2023/10/01 12:02:59;;;;;;;;;;;21.90;99.90;;;;;;5097142;28;19977;-31
2023/10/01 12:05:38;;;;;;;;;;;22.00;99.90;;;;;;5100083;28;19931;-33
2023/10/01 12:08:06;;;;;;;;;;;22.10;99.90;;;;;;5100617;28;19923;-32
2023/10/01 12:10:35;;;;;;;;;;;22.20;99.90;;;;;;5091413;28;20039;-31
2023/10/01 12:13:02;;;;;;;;;;;22.20;99.90;;;;;;5088812;28;19932;-32
2023/10/01 12:15:35;;;;;;;;;;;22.30;99.90;;;;;;5090932;28;19924;-32
2023/10/01 12:18:07;;;;;;;;;;;22.40;99.90;;;;;;5091665;28;19931;-32
2023/10/01 12:20:39;;;;;;;;;;;22.50;99.90;;;;;;5078516;28;19972;-30
2023/10/01 12:23:10;;;;;;;;;;;22.60;99.90;;;;;;5071770;28;20276;-32
2023/10/01 12:25:46;;;;;;;;;;;22.70;99.90;;;;;;5090553;28;19935;-31
2023/10/01 12:28:15;;;;;;;;;;;22.80;99.90;;;;;;5087846;28;19924;-30
2023/10/01 12:30:42;;;;;;;;;;;22.80;99.90;;;;;;5091747;28;19993;-31
2023/10/01 12:33:09;;;;;;;;;;;22.80;99.90;;;;;;5089574;28;20229;-31
2023/10/01 12:35:35;;;;;;;;;;;22.80;99.90;;;;;;5092228;28;19924;-31
2023/10/01 12:40:52;;;;;;;;;;;23.00;99.90;;;;;;5073373;28;20014;-31
2023/10/01 12:43:32;;;;;;;;;;;23.10;99.90;;;;;;5109944;28;19930;-33
2023/10/01 12:45:59;;;;;;;;;;;23.10;99.90;;;;;;5106126;28;20386;-33
2023/10/01 12:48:24;;;;;;;;;;;23.20;99.90;;;;;;5091731;28;20450;-33
2023/10/01 12:51:00;;;;;;;;;;;23.30;99.90;;;;;;5105656;28;19927;-33
2023/10/01 12:53:27;;;;;;;;;;;23.30;99.90;;;;;;5112858;28;19928;-33
2023/10/01 12:55:56;;;;;;;;;;;23.40;99.90;;;;;;5108892;28;19928;-31
2023/10/01 12:58:35;;;;;;;;;;;23.50;99.90;;;;;;5096582;28;19925;-34
2023/10/01 13:01:04;;;;;;;;;;;23.60;99.90;;;;;;5115671;28;19928;-31
2023/10/01 13:03:30;;;;;;;;;;;23.70;99.90;;;;;;5094710;28;19928;-33
2023/10/01 13:06:05;;;;;;;;;;;23.80;99.90;;;;;;5106733;28;19996;-31
2023/10/01 13:08:34;;;;;;;;;;;23.80;99.90;;;;;;5105912;28;19924;-31
2023/10/01 13:11:02;;;;;;;;;;;23.80;99.90;;;;;;5095963;28;19986;-31
2023/10/01 13:13:35;;;;;;;;;;;23.80;99.90;;;;;;5093438;28;19928;-31
2023/10/01 13:16:02;;;;;;;;;;;23.80;99.90;;;;;;5093795;28;20406;-31
2023/10/01 13:18:33;;;;;;;;;;;23.70;99.90;;;;;;5108451;28;19931;-32
2023/10/01 13:21:06;;;;;;;;;;;23.70;99.90;;;;;;5103322;28;19924;-31
2023/10/01 13:23:41;;;;;;;;;;;23.60;99.90;;;;;;5099867;28;19998;-31
2023/10/01 13:26:14;;;;;;;;;;;23.60;99.90;;;;;;5113437;28;20344;-31
2023/10/01 13:28:49;;;;;;;;;;;23.60;99.90;;;;;;5114321;28;19935;-34
2023/10/01 13:34:09;;;;;;;;;;;23.60;99.90;;;;;;5093570;28;19924;-33
2023/10/01 13:36:47;;;;;;;;;;;23.50;99.90;;;;;;5093264;28;19982;-31
2023/10/01 13:39:25;;;;;;;;;;;23.50;99.90;;;;;;5101259;28;20434;-32
2023/10/01 14:09:47;;;;;;;;;;;24.20;99.90;;;;;;5102388;28;19924;-32
2023/10/01 14:12:12;;;;;;;;;;;24.10;99.90;;;;;;5095218;28;19931;-32
2023/10/01 14:14:43;;;;;;;;;;;24.00;99.90;;;;;;5095519;28;20060;-31
2023/10/01 14:17:15;;;;;;;;;;;24.00;99.90;;;;;;5114706;28;20353;-31
2023/10/01 14:19:42;;;;;;;;;;;24.00;99.90;;;;;;5112484;28;19928;-31
2023/10/01 14:22:19;;;;;;;;;;;24.00;99.90;;;;;;5106235;28;19927;-31
2023/10/01 14:24:46;;;;;;;;;;;23.90;99.90;;;;;;5103651;28;19931;-34
2023/10/01 14:27:24;;;;;;;;;;;23.80;99.90;;;;;;5111151;28;19923;-32
2023/10/01 14:30:01;;;;;;;;;;;23.70;99.90;;;;;;5111104;28;19924;-32
2023/10/01 14:32:35;;;;;;;;;;;23.70;99.90;;;;;;5091731;28;19928;-31
2023/10/01 14:35:14;;;;;;;;;;;23.70;99.90;;;;;;5091801;28;19978;-31
2023/10/01 14:37:41;;;;;;;;;;;23.80;99.90;;;;;;5110398;28;19935;-32
2023/10/01 14:40:13;;;;;;;;;;;23.70;99.90;;;;;;5085570;28;20371;-32
2023/10/01 14:42:40;;;;;;;;;;;23.70;99.90;;;;;;5095910;28;19982;-32
2023/10/01 14:45:10;;;;;;;;;;;23.70;99.90;;;;;;5104388;28;19928;-33
2023/10/01 14:47:39;;;;;;;;;;;23.70;99.90;;;;;;5094969;28;19928;-32
2023/10/01 14:50:06;;;;;;;;;;;23.70;99.90;;;;;;5085651;28;19924;-31
2023/10/01 14:52:40;;;;;;;;;;;23.60;99.90;;;;;;5095333;28;19928;-31
2023/10/01 14:55:08;;;;;;;;;;;23.60;99.90;;;;;;5093300;28;19930;-33
2023/10/01 14:57:35;;;;;;;;;;;23.50;99.90;;;;;;5095452;28;19927;-31
2023/10/01 15:00:02;;;;;;;;;;;23.60;99.90;;;;;;5096057;28;20015;-32
2023/10/01 15:02:36;;;;;;;;;;;23.50;99.90;;;;;;5071632;28;19970;-31
2023/10/01 15:05:10;;;;;;;;;;;23.50;99.90;;;;;;5099022;28;20117;-31
2023/10/01 15:07:36;;;;;;;;;;;23.50;99.90;;;;;;5108193;28;19923;-31
2023/10/01 15:10:05;;;;;;;;;;;23.50;99.90;;;;;;5101218;28;19924;-31
2023/10/01 15:12:31;;;;;;;;;;;23.40;99.90;;;;;;5108393;27;20391;-33
2023/10/01 15:14:58;;;;;;;;;;;23.40;99.90;;;;;;5081488;28;20428;-32
2023/10/01 15:17:25;;;;;;;;;;;23.40;99.90;;;;;;5087007;28;20426;-33
2023/10/01 15:19:53;;;;;;;;;;;23.30;99.90;;;;;;5121637;27;20026;-32
2023/10/01 15:22:20;;;;;;;;;;;23.30;99.90;;;;;;5105902;28;20243;-31
2023/10/01 15:24:48;;;;;;;;;;;23.30;99.90;;;;;;5105259;28;19924;-31
2023/10/01 15:27:23;;;;;;;;;;;23.30;99.90;;;;;;5091720;28;20454;-31
2023/10/01 15:29:52;;;;;;;;;;;23.30;99.90;;;;;;5081271;28;19930;-31
2023/10/01 15:32:19;;;;;;;;;;;23.30;99.90;;;;;;5107544;28;20234;-31